sensor_id;sensor_type;location;lat;lon;timestamp;pressure;altitude;pressure_sealevel;temperature;humidity
72110;BME280;59983;52.010;5.420;2022-09-23T00:00:43;101868.50;;;11.39;79.04
72110;BME280;59983;52.010;5.420;2022-09-23T00:03:10;101866.47;;;11.27;79.60
72110;BME280;59983;52.010;5.420;2022-09-23T00:05:37;101874.16;;;11.25;79.74
72110;BME280;59983;52.010;5.420;2022-09-23T00:08:05;101863.41;;;11.28;80.06
72110;BME280;59983;52.010;5.420;2022-09-23T00:10:36;101867.25;;;11.27;79.73
72110;BME280;59983;52.010;5.420;2022-09-23T00:13:03;101863.41;;;11.28;79.41
72110;BME280;59983;52.010;5.420;2022-09-23T00:15:31;101860.38;;;11.30;79.00
72110;BME280;59983;52.010;5.420;2022-09-23T00:18:02;101856.22;;;11.32;79.13
72110;BME280;59983;52.010;5.420;2022-09-23T00:20:28;101864.84;;;11.34;78.80
72110;BME280;59983;52.010;5.420;2022-09-23T00:22:55;101856.66;;;11.43;78.29
72110;BME280;59983;52.010;5.420;2022-09-23T00:25:22;101857.78;;;11.42;78.20
72110;BME280;59983;52.010;5.420;2022-09-23T00:27:50;101851.25;;;11.34;78.42
72110;BME280;59983;52.010;5.420;2022-09-23T00:30:16;101842.66;;;11.32;78.60
72110;BME280;59983;52.010;5.420;2022-09-23T00:32:43;101843.25;;;11.38;78.21
72110;BME280;59983;52.010;5.420;2022-09-23T00:35:10;101844.69;;;11.44;77.80
72110;BME280;59983;52.010;5.420;2022-09-23T00:37:36;101840.88;;;11.37;78.11
72110;BME280;59983;52.010;5.420;2022-09-23T00:40:03;101834.88;;;11.22;78.91
72110;BME280;59983;52.010;5.420;2022-09-23T00:42:29;101841.91;;;11.15;79.25
72110;BME280;59983;52.010;5.420;2022-09-23T00:44:57;101833.78;;;11.06;79.82
72110;BME280;59983;52.010;5.420;2022-09-23T00:47:46;101829.16;;;11.06;79.37
72110;BME280;59983;52.010;5.420;2022-09-23T00:50:26;101834.25;;;11.08;79.35
72110;BME280;59983;52.010;5.420;2022-09-23T00:53:02;101828.50;;;11.10;79.31
72110;BME280;59983;52.010;5.420;2022-09-23T00:55:36;101822.28;;;11.09;79.01
72110;BME280;59983;52.010;5.420;2022-09-23T00:58:06;101827.84;;;11.13;79.49
72110;BME280;59983;52.010;5.420;2022-09-23T01:00:34;101822.56;;;11.16;79.16
72110;BME280;59983;52.010;5.420;2022-09-23T01:03:01;101821.78;;;11.16;79.23
72110;BME280;59983;52.010;5.420;2022-09-23T01:05:30;101825.75;;;11.18;79.07
72110;BME280;59983;52.010;5.420;2022-09-23T01:07:58;101829.16;;;11.06;79.87
72110;BME280;59983;52.010;5.420;2022-09-23T01:10:31;101820.56;;;10.96;79.83
72110;BME280;59983;52.010;5.420;2022-09-23T01:13:20;101820.09;;;10.76;79.66
72110;BME280;59983;52.010;5.420;2022-09-23T01:16:00;101829.84;;;10.69;80.07
72110;BME280;59983;52.010;5.420;2022-09-23T01:18:40;101826.66;;;10.67;80.50
72110;BME280;59983;52.010;5.420;2022-09-23T01:21:17;101823.00;;;10.63;80.86
72110;BME280;59983;52.010;5.420;2022-09-23T01:26:59;101818.19;;;10.68;80.16
72110;BME280;59983;52.010;5.420;2022-09-23T01:37:47;101808.78;;;10.74;80.06
72110;BME280;59983;52.010;5.420;2022-09-23T01:40:29;101811.00;;;10.72;79.61
72110;BME280;59983;52.010;5.420;2022-09-23T01:43:10;101804.47;;;10.73;79.35
72110;BME280;59983;52.010;5.420;2022-09-23T01:45:45;101804.94;;;10.75;79.48
72110;BME280;59983;52.010;5.420;2022-09-23T01:50:56;101797.25;;;10.77;79.48
72110;BME280;59983;52.010;5.420;2022-09-23T01:53:34;101798.09;;;10.78;79.53
72110;BME280;59983;52.010;5.420;2022-09-23T01:56:18;101792.69;;;10.69;80.13
72110;BME280;59983;52.010;5.420;2022-09-23T01:59:04;101797.91;;;10.74;80.07
72110;BME280;59983;52.010;5.420;2022-09-23T02:02:01;101795.06;;;10.71;79.95
72110;BME280;59983;52.010;5.420;2022-09-23T02:04:34;101804.31;;;10.70;79.92
72110;BME280;59983;52.010;5.420;2022-09-23T02:07:10;101806.38;;;10.73;80.15
72110;BME280;59983;52.010;5.420;2022-09-23T02:09:45;101801.75;;;10.73;79.82
72110;BME280;59983;52.010;5.420;2022-09-23T02:12:16;101806.53;;;10.68;80.41
72110;BME280;59983;52.010;5.420;2022-09-23T02:14:58;101791.56;;;10.62;80.76
72110;BME280;59983;52.010;5.420;2022-09-23T02:17:45;101794.09;;;10.58;80.72
72110;BME280;59983;52.010;5.420;2022-09-23T02:20:15;101790.78;;;10.61;80.31
72110;BME280;59983;52.010;5.420;2022-09-23T02:28:39;101776.56;;;10.64;79.94
72110;BME280;59983;52.010;5.420;2022-09-23T02:31:15;101769.34;;;10.68;80.44
72110;BME280;59983;52.010;5.420;2022-09-23T02:33:53;101767.75;;;10.67;80.15
72110;BME280;59983;52.010;5.420;2022-09-23T02:36:31;101760.41;;;10.76;80.22
72110;BME280;59983;52.010;5.420;2022-09-23T02:39:02;101760.56;;;10.80;80.28
72110;BME280;59983;52.010;5.420;2022-09-23T02:44:11;101755.28;;;10.84;80.25
72110;BME280;59983;52.010;5.420;2022-09-23T02:46:38;101753.56;;;10.70;80.03
72110;BME280;59983;52.010;5.420;2022-09-23T02:49:10;101751.50;;;10.50;79.96
72110;BME280;59983;52.010;5.420;2022-09-23T02:51:38;101752.31;;;10.42;79.82
72110;BME280;59983;52.010;5.420;2022-09-23T02:54:08;101753.16;;;10.34;80.18
72110;BME280;59983;52.010;5.420;2022-09-23T02:56:36;101746.59;;;10.35;80.21
72110;BME280;59983;52.010;5.420;2022-09-23T02:59:03;101740.69;;;10.33;80.27
72110;BME280;59983;52.010;5.420;2022-09-23T03:04:29;101735.88;;;10.47;80.80
72110;BME280;59983;52.010;5.420;2022-09-23T03:07:03;101740.06;;;10.44;80.68
72110;BME280;59983;52.010;5.420;2022-09-23T03:09:35;101741.16;;;10.52;80.60
72110;BME280;59983;52.010;5.420;2022-09-23T03:14:59;101736.38;;;10.40;80.90
72110;BME280;59983;52.010;5.420;2022-09-23T03:20:28;101733.50;;;10.45;80.59
72110;BME280;59983;52.010;5.420;2022-09-23T03:23:00;101734.13;;;10.51;80.47
72110;BME280;59983;52.010;5.420;2022-09-23T03:25:31;101733.78;;;10.61;80.34
72110;BME280;59983;52.010;5.420;2022-09-23T03:28:01;101728.38;;;10.61;80.04
72110;BME280;59983;52.010;5.420;2022-09-23T03:30:30;101725.50;;;10.49;80.43
72110;BME280;59983;52.010;5.420;2022-09-23T03:33:02;101730.16;;;10.40;81.03
72110;BME280;59983;52.010;5.420;2022-09-23T03:35:33;101720.44;;;10.30;81.12
72110;BME280;59983;52.010;5.420;2022-09-23T03:38:22;101729.03;;;10.24;81.34
72110;BME280;59983;52.010;5.420;2022-09-23T03:40:53;101727.31;;;10.28;81.79
72110;BME280;59983;52.010;5.420;2022-09-23T03:43:21;101722.50;;;10.33;81.46
72110;BME280;59983;52.010;5.420;2022-09-23T03:45:47;101725.53;;;10.40;81.54
72110;BME280;59983;52.010;5.420;2022-09-23T03:48:14;101719.31;;;10.40;81.70
72110;BME280;59983;52.010;5.420;2022-09-23T03:50:40;101719.63;;;10.38;82.14
72110;BME280;59983;52.010;5.420;2022-09-23T03:53:07;101712.94;;;10.44;81.95
72110;BME280;59983;52.010;5.420;2022-09-23T03:55:33;101718.34;;;10.53;81.88
72110;BME280;59983;52.010;5.420;2022-09-23T03:58:00;101712.28;;;10.47;81.65
72110;BME280;59983;52.010;5.420;2022-09-23T04:00:30;101706.88;;;10.39;82.38
72110;BME280;59983;52.010;5.420;2022-09-23T04:02:56;101709.75;;;10.34;82.65
72110;BME280;59983;52.010;5.420;2022-09-23T04:05:22;101717.56;;;10.35;82.65
72110;BME280;59983;52.010;5.420;2022-09-23T04:07:49;101711.97;;;10.32;82.46
72110;BME280;59983;52.010;5.420;2022-09-23T04:10:16;101706.72;;;10.27;82.21
72110;BME280;59983;52.010;5.420;2022-09-23T04:12:42;101712.16;;;10.27;82.27
72110;BME280;59983;52.010;5.420;2022-09-23T04:15:09;101708.94;;;10.25;82.52
72110;BME280;59983;52.010;5.420;2022-09-23T04:17:35;101707.22;;;10.29;82.75
72110;BME280;59983;52.010;5.420;2022-09-23T04:20:02;101706.22;;;10.33;82.68
72110;BME280;59983;52.010;5.420;2022-09-23T04:22:29;101706.53;;;10.40;82.41
72110;BME280;59983;52.010;5.420;2022-09-23T04:24:56;101704.13;;;10.47;81.83
72110;BME280;59983;52.010;5.420;2022-09-23T04:27:22;101709.22;;;10.49;82.37
72110;BME280;59983;52.010;5.420;2022-09-23T04:29:49;101705.72;;;10.48;82.16
72110;BME280;59983;52.010;5.420;2022-09-23T04:32:16;101705.41;;;10.50;82.11
72110;BME280;59983;52.010;5.420;2022-09-23T04:34:42;101707.47;;;10.53;82.50
72110;BME280;59983;52.010;5.420;2022-09-23T04:37:08;101703.78;;;10.58;82.11
72110;BME280;59983;52.010;5.420;2022-09-23T04:39:35;101695.81;;;10.61;82.35
72110;BME280;59983;52.010;5.420;2022-09-23T04:42:01;101688.13;;;10.72;82.22
72110;BME280;59983;52.010;5.420;2022-09-23T04:44:29;101692.56;;;10.76;81.73
72110;BME280;59983;52.010;5.420;2022-09-23T04:46:55;101695.09;;;10.82;81.70
72110;BME280;59983;52.010;5.420;2022-09-23T04:49:22;101698.75;;;10.86;81.78
72110;BME280;59983;52.010;5.420;2022-09-23T04:51:48;101692.22;;;10.87;81.82
72110;BME280;59983;52.010;5.420;2022-09-23T04:54:15;101699.22;;;10.88;81.67
72110;BME280;59983;52.010;5.420;2022-09-23T04:56:41;101695.56;;;10.84;82.13
72110;BME280;59983;52.010;5.420;2022-09-23T04:59:08;101702.91;;;10.83;82.02
72110;BME280;59983;52.010;5.420;2022-09-23T05:01:34;101697.34;;;10.80;82.23
72110;BME280;59983;52.010;5.420;2022-09-23T05:04:04;101694.63;;;10.80;82.01
72110;BME280;59983;52.010;5.420;2022-09-23T05:06:32;101690.13;;;10.84;81.77
72110;BME280;59983;52.010;5.420;2022-09-23T05:09:04;101695.41;;;10.89;81.80
72110;BME280;59983;52.010;5.420;2022-09-23T05:11:30;101689.16;;;10.88;81.83
72110;BME280;59983;52.010;5.420;2022-09-23T05:13:57;101686.72;;;10.95;81.49
72110;BME280;59983;52.010;5.420;2022-09-23T05:16:24;101695.16;;;11.02;81.54
72110;BME280;59983;52.010;5.420;2022-09-23T05:18:52;101691.81;;;11.05;81.48
72110;BME280;59983;52.010;5.420;2022-09-23T05:21:21;101689.88;;;11.06;81.37
72110;BME280;59983;52.010;5.420;2022-09-23T05:23:50;101686.50;;;11.09;81.04
72110;BME280;59983;52.010;5.420;2022-09-23T05:26:22;101694.66;;;11.09;81.10
72110;BME280;59983;52.010;5.420;2022-09-23T05:28:51;101692.94;;;11.04;81.56
72110;BME280;59983;52.010;5.420;2022-09-23T05:31:19;101685.06;;;11.12;81.24
72110;BME280;59983;52.010;5.420;2022-09-23T05:33:54;101684.09;;;11.16;81.04
72110;BME280;59983;52.010;5.420;2022-09-23T05:36:23;101683.56;;;11.23;80.74
72110;BME280;59983;52.010;5.420;2022-09-23T05:38:50;101687.72;;;11.20;81.02
72110;BME280;59983;52.010;5.420;2022-09-23T05:41:18;101698.13;;;11.18;81.18
72110;BME280;59983;52.010;5.420;2022-09-23T05:43:46;101696.06;;;11.15;81.16
72110;BME280;59983;52.010;5.420;2022-09-23T05:46:18;101698.78;;;11.15;81.37
72110;BME280;59983;52.010;5.420;2022-09-23T05:48:45;101697.66;;;11.16;81.54
72110;BME280;59983;52.010;5.420;2022-09-23T05:51:17;101693.66;;;11.22;81.15
72110;BME280;59983;52.010;5.420;2022-09-23T05:53:46;101699.38;;;11.21;80.93
72110;BME280;59983;52.010;5.420;2022-09-23T05:56:17;101693.03;;;11.17;81.54
72110;BME280;59983;52.010;5.420;2022-09-23T05:58:44;101695.41;;;11.18;81.41
72110;BME280;59983;52.010;5.420;2022-09-23T06:01:13;101700.00;;;11.26;81.10
72110;BME280;59983;52.010;5.420;2022-09-23T06:03:40;101701.88;;;11.34;81.22
72110;BME280;59983;52.010;5.420;2022-09-23T06:06:11;101702.22;;;11.33;81.31
72110;BME280;59983;52.010;5.420;2022-09-23T06:08:40;101699.03;;;11.31;81.45
72110;BME280;59983;52.010;5.420;2022-09-23T06:11:07;101702.66;;;11.35;81.40
72110;BME280;59983;52.010;5.420;2022-09-23T06:13:35;101699.50;;;11.33;81.36
72110;BME280;59983;52.010;5.420;2022-09-23T06:16:05;101694.84;;;11.33;81.50
72110;BME280;59983;52.010;5.420;2022-09-23T06:18:34;101691.13;;;11.38;81.61
72110;BME280;59983;52.010;5.420;2022-09-23T06:21:01;101694.34;;;11.40;81.79
72110;BME280;59983;52.010;5.420;2022-09-23T06:23:28;101688.38;;;11.47;81.22
72110;BME280;59983;52.010;5.420;2022-09-23T06:26:02;101688.84;;;11.49;81.40
72110;BME280;59983;52.010;5.420;2022-09-23T06:28:30;101686.94;;;11.49;81.31
72110;BME280;59983;52.010;5.420;2022-09-23T06:30:59;101694.28;;;11.49;81.41
72110;BME280;59983;52.010;5.420;2022-09-23T06:33:26;101695.31;;;11.56;80.85
72110;BME280;59983;52.010;5.420;2022-09-23T06:36:04;101690.50;;;11.62;80.42
72110;BME280;59983;52.010;5.420;2022-09-23T06:38:31;101688.72;;;11.66;80.52
72110;BME280;59983;52.010;5.420;2022-09-23T06:40:59;101688.78;;;11.57;80.42
72110;BME280;59983;52.010;5.420;2022-09-23T06:43:26;101691.44;;;11.66;80.45
72110;BME280;59983;52.010;5.420;2022-09-23T06:48:21;101703.22;;;11.70;80.26
72110;BME280;59983;52.010;5.420;2022-09-23T06:50:47;101696.78;;;11.75;80.18
72110;BME280;59983;52.010;5.420;2022-09-23T06:53:15;101698.41;;;11.76;80.10
72110;BME280;59983;52.010;5.420;2022-09-23T06:55:42;101693.09;;;11.79;80.04
72110;BME280;59983;52.010;5.420;2022-09-23T06:58:09;101687.50;;;11.84;80.47
72110;BME280;59983;52.010;5.420;2022-09-23T07:00:36;101693.66;;;11.94;79.98
72110;BME280;59983;52.010;5.420;2022-09-23T07:03:07;101693.59;;;12.02;79.69
72110;BME280;59983;52.010;5.420;2022-09-23T07:05:34;101698.94;;;12.11;79.77
72110;BME280;59983;52.010;5.420;2022-09-23T07:08:01;101694.06;;;12.16;79.67
72110;BME280;59983;52.010;5.420;2022-09-23T07:10:28;101692.75;;;12.23;79.14
72110;BME280;59983;52.010;5.420;2022-09-23T07:13:00;101689.94;;;12.31;79.23
72110;BME280;59983;52.010;5.420;2022-09-23T07:15:26;101687.81;;;12.37;79.27
72110;BME280;59983;52.010;5.420;2022-09-23T07:17:53;101693.47;;;12.44;79.14
72110;BME280;59983;52.010;5.420;2022-09-23T07:20:19;101693.38;;;12.53;78.54
72110;BME280;59983;52.010;5.420;2022-09-23T07:22:50;101686.41;;;12.64;78.62
72110;BME280;59983;52.010;5.420;2022-09-23T07:25:18;101678.69;;;12.78;77.97
72110;BME280;59983;52.010;5.420;2022-09-23T07:27:45;101678.72;;;12.90;77.46
72110;BME280;59983;52.010;5.420;2022-09-23T07:30:14;101678.00;;;13.05;77.70
72110;BME280;59983;52.010;5.420;2022-09-23T07:32:50;101682.78;;;13.09;76.96
72110;BME280;59983;52.010;5.420;2022-09-23T07:35:17;101681.22;;;13.08;76.71
72110;BME280;59983;52.010;5.420;2022-09-23T07:37:44;101689.16;;;13.00;76.94
72110;BME280;59983;52.010;5.420;2022-09-23T07:40:11;101684.25;;;13.06;76.87
72110;BME280;59983;52.010;5.420;2022-09-23T07:42:38;101692.78;;;13.04;77.25
72110;BME280;59983;52.010;5.420;2022-09-23T07:45:07;101699.59;;;13.11;77.44
72110;BME280;59983;52.010;5.420;2022-09-23T07:47:34;101697.56;;;13.20;76.77
72110;BME280;59983;52.010;5.420;2022-09-23T07:50:01;101697.31;;;13.25;76.27
72110;BME280;59983;52.010;5.420;2022-09-23T07:52:27;101705.06;;;13.23;76.30
72110;BME280;59983;52.010;5.420;2022-09-23T07:54:54;101695.50;;;13.17;77.18
72110;BME280;59983;52.010;5.420;2022-09-23T07:57:20;101700.81;;;13.13;77.03
72110;BME280;59983;52.010;5.420;2022-09-23T07:59:47;101702.78;;;13.25;77.31
72110;BME280;59983;52.010;5.420;2022-09-23T08:02:13;101699.25;;;13.24;76.99
72110;BME280;59983;52.010;5.420;2022-09-23T08:04:41;101696.31;;;13.29;77.31
72110;BME280;59983;52.010;5.420;2022-09-23T08:07:11;101690.16;;;13.32;77.50
72110;BME280;59983;52.010;5.420;2022-09-23T08:09:40;101691.50;;;13.51;77.71
72110;BME280;59983;52.010;5.420;2022-09-23T08:12:09;101696.81;;;13.59;76.67
72110;BME280;59983;52.010;5.420;2022-09-23T08:14:41;101695.91;;;13.68;77.17
72110;BME280;59983;52.010;5.420;2022-09-23T08:17:08;101695.09;;;13.67;76.18
72110;BME280;59983;52.010;5.420;2022-09-23T08:19:36;101690.22;;;13.73;76.30
72110;BME280;59983;52.010;5.420;2022-09-23T08:22:02;101695.41;;;13.78;76.19
72110;BME280;59983;52.010;5.420;2022-09-23T08:24:29;101689.72;;;13.83;75.65
72110;BME280;59983;52.010;5.420;2022-09-23T08:26:57;101695.53;;;13.81;75.50
72110;BME280;59983;52.010;5.420;2022-09-23T08:29:24;101694.28;;;13.79;76.02
72110;BME280;59983;52.010;5.420;2022-09-23T08:31:52;101690.47;;;13.96;75.36
72110;BME280;59983;52.010;5.420;2022-09-23T08:34:19;101688.84;;;14.07;74.50
72110;BME280;59983;52.010;5.420;2022-09-23T08:36:47;101691.22;;;14.08;74.70
72110;BME280;59983;52.010;5.420;2022-09-23T08:39:17;101685.41;;;14.10;74.30
72110;BME280;59983;52.010;5.420;2022-09-23T08:42:02;101697.41;;;14.21;75.36
72110;BME280;59983;52.010;5.420;2022-09-23T08:49:40;101691.25;;;14.52;74.27
72110;BME280;59983;52.010;5.420;2022-09-23T08:52:17;101700.06;;;14.45;74.19
72110;BME280;59983;52.010;5.420;2022-09-23T08:54:48;101695.56;;;14.53;74.19
72110;BME280;59983;52.010;5.420;2022-09-23T08:57:44;101695.31;;;14.58;73.59
72110;BME280;59983;52.010;5.420;2022-09-23T09:00:41;101693.91;;;14.64;73.68
72110;BME280;59983;52.010;5.420;2022-09-23T09:03:22;101695.16;;;14.67;73.38
72110;BME280;59983;52.010;5.420;2022-09-23T09:05:51;101692.94;;;14.72;73.68
72110;BME280;59983;52.010;5.420;2022-09-23T09:08:28;101694.97;;;14.76;72.95
72110;BME280;59983;52.010;5.420;2022-09-23T09:10:57;101691.19;;;14.80;73.74
72110;BME280;59983;52.010;5.420;2022-09-23T09:19:02;101681.19;;;15.19;73.07
72110;BME280;59983;52.010;5.420;2022-09-23T09:21:36;101684.59;;;15.32;73.43
72110;BME280;59983;52.010;5.420;2022-09-23T09:24:16;101678.16;;;15.40;72.39
72110;BME280;59983;52.010;5.420;2022-09-23T09:26:42;101678.22;;;15.44;72.43
72110;BME280;59983;52.010;5.420;2022-09-23T09:32:18;101679.78;;;15.61;71.35
72110;BME280;59983;52.010;5.420;2022-09-23T09:34:51;101671.22;;;15.62;70.86
72110;BME280;59983;52.010;5.420;2022-09-23T09:37:32;101664.03;;;15.73;71.10
72110;BME280;59983;52.010;5.420;2022-09-23T09:40:01;101663.09;;;15.85;70.79
72110;BME280;59983;52.010;5.420;2022-09-23T09:42:37;101667.78;;;15.84;70.75
72110;BME280;59983;52.010;5.420;2022-09-23T09:45:17;101667.19;;;15.95;69.64
72110;BME280;59983;52.010;5.420;2022-09-23T09:48:09;101657.97;;;16.03;69.61
72110;BME280;59983;52.010;5.420;2022-09-23T09:55:41;101662.81;;;16.32;68.77
72110;BME280;59983;52.010;5.420;2022-09-23T09:58:11;101661.75;;;16.37;67.79
72110;BME280;59983;52.010;5.420;2022-09-23T10:00:43;101652.72;;;16.36;67.20
72110;BME280;59983;52.010;5.420;2022-09-23T10:08:29;101656.19;;;16.56;66.70
72110;BME280;59983;52.010;5.420;2022-09-23T10:13:25;101654.19;;;16.76;65.56
72110;BME280;59983;52.010;5.420;2022-09-23T10:15:53;101648.59;;;16.69;65.09
72110;BME280;59983;52.010;5.420;2022-09-23T10:18:31;101647.94;;;16.76;65.87
72110;BME280;59983;52.010;5.420;2022-09-23T10:21:09;101639.28;;;16.74;65.02
72110;BME280;59983;52.010;5.420;2022-09-23T10:23:47;101633.19;;;16.84;65.96
72110;BME280;59983;52.010;5.420;2022-09-23T10:26:24;101633.34;;;16.94;65.54
72110;BME280;59983;52.010;5.420;2022-09-23T10:28:52;101633.16;;;17.07;64.56
72110;BME280;59983;52.010;5.420;2022-09-23T10:31:31;101628.97;;;17.16;64.44
72110;BME280;59983;52.010;5.420;2022-09-23T10:34:00;101627.75;;;17.14;64.17
72110;BME280;59983;52.010;5.420;2022-09-23T10:36:29;101628.97;;;17.16;64.13
72110;BME280;59983;52.010;5.420;2022-09-23T10:38:59;101629.75;;;17.17;64.53
72110;BME280;59983;52.010;5.420;2022-09-23T10:41:54;101628.22;;;17.19;64.26
72110;BME280;59983;52.010;5.420;2022-09-23T10:44:57;101629.75;;;17.17;63.67
72110;BME280;59983;52.010;5.420;2022-09-23T10:53:03;101632.16;;;17.22;63.11
72110;BME280;59983;52.010;5.420;2022-09-23T10:55:47;101636.53;;;17.23;64.22
72110;BME280;59983;52.010;5.420;2022-09-23T10:58:37;101636.94;;;17.25;63.02
72110;BME280;59983;52.010;5.420;2022-09-23T11:06:39;101628.75;;;17.28;62.71
72110;BME280;59983;52.010;5.420;2022-09-23T11:15:08;101637.03;;;17.32;62.78
72110;BME280;59983;52.010;5.420;2022-09-23T11:18:01;101629.16;;;17.31;61.11
72110;BME280;59983;52.010;5.420;2022-09-23T11:20:40;101626.84;;;17.33;60.71
72110;BME280;59983;52.010;5.420;2022-09-23T11:23:31;101627.72;;;17.40;61.44
72110;BME280;59983;52.010;5.420;2022-09-23T11:31:51;101626.75;;;17.55;61.70
72110;BME280;59983;52.010;5.420;2022-09-23T11:37:32;101616.69;;;17.67;61.39
72110;BME280;59983;52.010;5.420;2022-09-23T11:40:05;101610.56;;;17.77;62.07
72110;BME280;59983;52.010;5.420;2022-09-23T11:42:42;101609.53;;;17.89;60.28
72110;BME280;59983;52.010;5.420;2022-09-23T11:45:23;101605.38;;;18.05;60.51
72110;BME280;59983;52.010;5.420;2022-09-23T11:47:55;101600.38;;;18.18;58.94
72110;BME280;59983;52.010;5.420;2022-09-23T11:53:17;101602.00;;;18.23;58.55
72110;BME280;59983;52.010;5.420;2022-09-23T11:55:51;101596.53;;;18.26;57.94
72110;BME280;59983;52.010;5.420;2022-09-23T11:58:36;101587.91;;;18.24;58.38
72110;BME280;59983;52.010;5.420;2022-09-23T12:01:20;101592.59;;;18.24;57.88
72110;BME280;59983;52.010;5.420;2022-09-23T12:06:47;101596.53;;;18.23;58.99
72110;BME280;59983;52.010;5.420;2022-09-23T12:09:22;101591.81;;;18.23;57.04
72110;BME280;59983;52.010;5.420;2022-09-23T12:12:37;101582.38;;;18.21;58.02
72110;BME280;59983;52.010;5.420;2022-09-23T12:15:24;101583.19;;;18.21;57.81
72110;BME280;59983;52.010;5.420;2022-09-23T12:20:49;101590.19;;;18.19;57.66
72110;BME280;59983;52.010;5.420;2022-09-23T12:26:20;101584.28;;;18.17;56.85
72110;BME280;59983;52.010;5.420;2022-09-23T12:28:50;101569.00;;;18.16;57.11
72110;BME280;59983;52.010;5.420;2022-09-23T12:31:21;101565.84;;;18.17;56.05
72110;BME280;59983;52.010;5.420;2022-09-23T12:33:49;101563.16;;;18.21;56.63
72110;BME280;59983;52.010;5.420;2022-09-23T12:36:31;101560.06;;;18.26;57.98
72110;BME280;59983;52.010;5.420;2022-09-23T12:41:33;101561.31;;;18.35;57.17
72110;BME280;59983;52.010;5.420;2022-09-23T12:49:46;101552.75;;;18.44;57.20
72110;BME280;59983;52.010;5.420;2022-09-23T13:00:12;101552.03;;;18.54;55.70
72110;BME280;59983;52.010;5.420;2022-09-23T13:02:55;101546.19;;;18.63;56.43
72110;BME280;59983;52.010;5.420;2022-09-23T13:05:45;101540.69;;;18.59;55.46
72110;BME280;59983;52.010;5.420;2022-09-23T13:08:31;101548.16;;;18.62;56.74
72110;BME280;59983;52.010;5.420;2022-09-23T13:11:02;101549.72;;;18.60;55.84
72110;BME280;59983;52.010;5.420;2022-09-23T13:13:39;101554.44;;;18.59;57.66
72110;BME280;59983;52.010;5.420;2022-09-23T13:16:10;101544.16;;;18.53;53.83
72110;BME280;59983;52.010;5.420;2022-09-23T13:19:40;101546.91;;;18.53;55.37
72110;BME280;59983;52.010;5.420;2022-09-23T13:26:44;101544.53;;;18.48;57.88
72110;BME280;59983;52.010;5.420;2022-09-23T13:29:22;101543.69;;;18.40;55.51
72110;BME280;59983;52.010;5.420;2022-09-23T13:31:51;101542.47;;;18.37;55.84
72110;BME280;59983;52.010;5.420;2022-09-23T13:34:20;101545.56;;;18.29;56.26
72110;BME280;59983;52.010;5.420;2022-09-23T13:36:48;101536.53;;;18.28;55.84
72110;BME280;59983;52.010;5.420;2022-09-23T13:39:18;101528.25;;;18.21;55.66
72110;BME280;59983;52.010;5.420;2022-09-23T13:41:47;101538.47;;;18.24;56.63
72110;BME280;59983;52.010;5.420;2022-09-23T13:44:17;101533.00;;;18.28;59.12
72110;BME280;59983;52.010;5.420;2022-09-23T13:46:50;101533.41;;;18.30;57.09
72110;BME280;59983;52.010;5.420;2022-09-23T13:49:34;101529.13;;;18.32;57.40
72110;BME280;59983;52.010;5.420;2022-09-23T13:52:02;101528.72;;;18.34;58.21
72110;BME280;59983;52.010;5.420;2022-09-23T13:57:02;101529.03;;;18.22;58.92
72110;BME280;59983;52.010;5.420;2022-09-23T13:59:40;101527.41;;;18.14;57.58
72110;BME280;59983;52.010;5.420;2022-09-23T14:02:12;101531.66;;;18.07;57.47
72110;BME280;59983;52.010;5.420;2022-09-23T14:04:39;101520.59;;;18.00;58.05
72110;BME280;59983;52.010;5.420;2022-09-23T14:07:08;101515.53;;;18.02;59.08
72110;BME280;59983;52.010;5.420;2022-09-23T14:09:36;101511.25;;;18.05;58.62
72110;BME280;59983;52.010;5.420;2022-09-23T14:12:06;101508.50;;;18.05;58.21
72110;BME280;59983;52.010;5.420;2022-09-23T14:14:36;101517.53;;;18.05;59.43
72110;BME280;59983;52.010;5.420;2022-09-23T14:17:05;101506.94;;;18.04;59.89
72110;BME280;59983;52.010;5.420;2022-09-23T14:19:34;101508.91;;;18.07;58.02
72110;BME280;59983;52.010;5.420;2022-09-23T14:22:02;101505.38;;;18.10;57.86
72110;BME280;59983;52.010;5.420;2022-09-23T14:26:58;101492.84;;;18.09;61.00
72110;BME280;59983;52.010;5.420;2022-09-23T14:29:32;101491.25;;;18.04;58.72
72110;BME280;59983;52.010;5.420;2022-09-23T14:32:04;101491.25;;;18.04;59.35
72110;BME280;59983;52.010;5.420;2022-09-23T14:34:48;101491.63;;;18.06;59.80
72110;BME280;59983;52.010;5.420;2022-09-23T14:37:19;101494.00;;;18.08;59.72
72110;BME280;59983;52.010;5.420;2022-09-23T14:40:14;101491.97;;;18.01;61.23
72110;BME280;59983;52.010;5.420;2022-09-23T14:42:45;101488.41;;;17.94;59.59
72110;BME280;59983;52.010;5.420;2022-09-23T14:45:20;101486.41;;;17.91;59.66
72110;BME280;59983;52.010;5.420;2022-09-23T14:48:00;101485.22;;;17.88;61.09
72110;BME280;59983;52.010;5.420;2022-09-23T14:50:30;101478.88;;;17.84;61.49
72110;BME280;59983;52.010;5.420;2022-09-23T14:55:53;101480.09;;;17.87;63.47
72110;BME280;59983;52.010;5.420;2022-09-23T14:58:25;101483.28;;;17.92;62.52
72110;BME280;59983;52.010;5.420;2022-09-23T15:00:56;101484.91;;;17.97;63.87
72110;BME280;59983;52.010;5.420;2022-09-23T15:03:25;101479.00;;;17.95;64.83
72110;BME280;59983;52.010;5.420;2022-09-23T15:06:02;101480.19;;;17.94;62.85
72110;BME280;59983;52.010;5.420;2022-09-23T15:08:34;101466.84;;;17.96;62.60
72110;BME280;59983;52.010;5.420;2022-09-23T15:11:04;101472.72;;;17.94;62.68
72110;BME280;59983;52.010;5.420;2022-09-23T15:13:38;101466.41;;;17.90;63.05
72110;BME280;59983;52.010;5.420;2022-09-23T15:16:06;101473.47;;;17.91;63.50
72110;BME280;59983;52.010;5.420;2022-09-23T15:18:37;101464.84;;;17.89;63.60
72110;BME280;59983;52.010;5.420;2022-09-23T15:21:07;101467.59;;;17.93;63.33